Aérodrome :
LOGIN :

S'inscrire | Disclaimer

   EN    FR    IT 

 










Légende :    VFR   VFR Marginal   IFR   IFR Intensif   IFR Très Intensif
Visi : 
Plafond : 
>= 8 km
>= 3000ft
5 à 8 km
1000 à 3000 ft
1500m à 5 km
500 à 1000 ft
800 à 1500m
200 à 500 ft
< 800m
< 200 ft
Symboles :   Orages  Brouillard  Fortes neiges  Fortes précipitations  Vent > 20 kt
SIGMETs :   Divers  Orages  Givrage  Turbulence  Onde Orograph.  Cendres Volcan.







- Altitude de l'aérodrome : 505 ft
- Code IATA : SXB
- Voir les cartes d'approche


LFST - Strasbourg

DERNIER METAR :
  • 231900Z AUTO 26007KT CAVOK 15/01 Q1027 NOSIG

METARs EXPIRÉS :
  • 231830Z AUTO 27010KT CAVOK 14/01 Q1026 NOSIG
  • 231800Z AUTO 23004KT CAVOK 12/03 Q1026 NOSIG
  • 231730Z AUTO 21005KT CAVOK 12/04 Q1025 NOSIG
  • 231700Z AUTO VRB01KT CAVOK 13/04 Q1026 NOSIG
  • 231630Z AUTO 20005KT CAVOK 14/04 Q1026 NOSIG

TAF TAF LFST
Valide du 23 à 18h jusqu'au 24 à 18h UTC


231700Z 2318/2418 24010KT CAVOK
BECMG 2400/2403 18008KT BKN025
PROB40
TEMPO 2405/2410 BKN014
BECMG 2410/2413 27010KT
Pas de NOTAMs connus pour ce terrain.



MET'MAP, la Météo Aéronautique d'un coup d'oeil ! - Copyright ORBIFLY Décembre 2007 - Disclaimer

ORBIFLY MET'MAP TEAM :

Programmation & Développement : Alexandra Zaïnal
Conception & Développement : Baudouin d'Aumeries
Co-Programmation & Développement : Marc-Olivier Méhu
Soutien technique & logistique : Manuel Goepfert

Contact : metmap@orbifly.com




SOURCES & CREDITS :

   NOAA